Weather History for Fremont, NE

Change the Weather History Date:

Thursday, May 2, 2013

  Actual Average Record
Temperature  
Mean Temperature 42 °F -  
Max Temperature 51 °F 71 °F 91 °F (1968)
Min Temperature 34 °F 43 °F 28 °F (1970)
Degree Days  
Heating Degree Days 22    
Moisture  
Dew Point 28 °F    
Average Humidity 62    
Maximum Humidity 92    
Minimum Humidity 33    
Precipitation  
Precipitation 0.00 in - - ()
Sea Level Pressure  
Sea Level Pressure 30.48 in    
Wind  
Wind Speed 10 mph (North)    
Max Wind Speed 21 mph    
Max Gust Speed 32 mph    
Visibility 10 miles    
Events Rain    
Averages and records for this station are not official NWS values.
T = Trace of Precipitation, MM = Missing Value Source: NWS Daily Summary

Daily Weather History Graph

Daily Weather History Graph

Search for Another Location

Airport:

Trip Planner

Search our weather history database for the weather conditions in past years. The results will help you decide how hot, cold, wet, or windy it might be!

Date:

Astronomy

May. 02, 2013 Rise Set
Actual Time 6:21 AM CDT 8:25 PM CDT
Civil Twilight 5:51 AM CDT 8:55 PM CDT
Nautical Twilight 5:14 AM CDT 9:32 PM CDT
Astronomical Twilight 4:34 AM CDT 10:13 PM CDT
Moon 2:14 AM CDT 1:10 PM CDT
Length of Visible Light 15h 04m
Length of Day
14h 03m
Waning Gibbous, 47% of the Moon is Illuminated
May 2
Waning Gibbous
May 9
New
May 17
First Quarter
May 24
Full
May 31
Last Quarter

Hourly Weather History & Observations

Time (CDT) Temp. Windchill Dew Point Humidity Pressure Visibility Wind Dir Wind Speed Gust Speed Precip Events Conditions
12:15 AM 34.7 °F 29.6 °F 32.5 °F 92% 30.44 in 5.0 mi North 5.8 mph - N/A Rain Light Rain
12:35 AM 34.9 °F 29.9 °F 32.4 °F 91% 30.44 in 10.0 mi North 5.8 mph - N/A   Overcast
12:55 AM 34.7 °F 28.8 °F 32.2 °F 91% 30.46 in 10.0 mi NW 6.9 mph - N/A   Light Drizzle
1:15 AM 35.1 °F 27.4 °F 32.0 °F 89% 30.44 in 10.0 mi NNW 10.4 mph - N/A   Overcast
1:35 AM 35.6 °F 28.0 °F 32.0 °F 87% 30.45 in 10.0 mi NNW 10.4 mph 17.3 mph N/A   Overcast
1:55 AM 36.0 °F 28.5 °F 31.6 °F 84% 30.45 in 10.0 mi North 10.4 mph 17.3 mph N/A   Overcast
2:15 AM 36.0 °F 28.5 °F 31.1 °F 82% 30.45 in 10.0 mi NNW 10.4 mph - N/A   Overcast
2:35 AM 36.0 °F 29.0 °F 31.3 °F 83% 30.46 in 10.0 mi NNW 9.2 mph - N/A   Overcast
2:55 AM 36.1 °F 29.3 °F 31.1 °F 82% 30.46 in 10.0 mi North 9.2 mph - N/A   Overcast
3:15 AM 36.0 °F 29.0 °F 31.1 °F 82% 30.45 in 10.0 mi North 9.2 mph 16.1 mph N/A   Overcast
3:35 AM 36.0 °F 28.5 °F 31.1 °F 82% 30.45 in 10.0 mi NNW 10.4 mph 18.4 mph N/A   Overcast
3:55 AM 36.1 °F 28.7 °F 31.1 °F 82% 30.46 in 10.0 mi NNW 10.4 mph 17.3 mph N/A   Overcast
4:15 AM 36.3 °F 28.0 °F 30.6 °F 80% 30.46 in 10.0 mi North 12.7 mph 19.6 mph N/A   Overcast
4:35 AM 36.1 °F 29.3 °F 30.2 °F 79% 30.47 in 10.0 mi NNW 9.2 mph - N/A   Overcast
4:55 AM 35.8 °F 28.3 °F 30.2 °F 80% 30.49 in 10.0 mi NNW 10.4 mph 16.1 mph N/A   Overcast
5:15 AM 36.0 °F 29.0 °F 30.2 °F 80% 30.50 in 10.0 mi NNW 9.2 mph - N/A   Overcast
5:35 AM 35.6 °F 28.6 °F 29.8 °F 80% 30.51 in 10.0 mi NNW 9.2 mph - N/A   Overcast
5:55 AM 35.8 °F 27.8 °F 29.7 °F 78% 30.51 in 10.0 mi NNW 11.5 mph 16.1 mph N/A   Overcast
6:15 AM 35.6 °F 28.6 °F 29.3 °F 78% 30.51 in 10.0 mi North 9.2 mph 16.1 mph N/A   Overcast
6:35 AM 36.3 °F 29.5 °F 28.4 °F 73% 30.51 in 10.0 mi North 9.2 mph 19.6 mph N/A   Overcast
6:55 AM 36.3 °F 28.4 °F 28.0 °F 72% 30.51 in 10.0 mi North 11.5 mph 17.3 mph N/A   Overcast
7:15 AM 36.5 °F 28.7 °F 26.2 °F 66% 30.52 in 10.0 mi North 11.5 mph 17.3 mph N/A   Mostly Cloudy
7:35 AM 36.5 °F 30.3 °F 26.4 °F 67% 30.53 in 10.0 mi NNW 8.1 mph 18.4 mph N/A   Mostly Cloudy
7:55 AM 36.7 °F 28.9 °F 26.4 °F 66% 30.54 in 10.0 mi North 11.5 mph 17.3 mph N/A   Mostly Cloudy
8:15 AM 36.7 °F 28.4 °F 26.6 °F 67% 30.55 in 10.0 mi NNW 12.7 mph 20.7 mph N/A   Unknown
8:35 AM 37.0 °F 29.8 °F 26.8 °F 66% 30.56 in 10.0 mi NNW 10.4 mph 18.4 mph N/A   Overcast
8:55 AM 37.0 °F 29.8 °F 27.1 °F 67% 30.55 in 10.0 mi NNW 10.4 mph 17.3 mph N/A   Overcast
9:15 AM 37.0 °F 28.1 °F 27.9 °F 69% 30.56 in 10.0 mi NNW 15.0 mph 19.6 mph N/A   Overcast
9:35 AM 37.4 °F 29.3 °F 27.7 °F 68% 30.56 in 10.0 mi NNW 12.7 mph 20.7 mph N/A   Mostly Cloudy
9:55 AM 38.1 °F 31.2 °F 28.4 °F 68% 30.56 in 10.0 mi NNW 10.4 mph 21.9 mph N/A   Mostly Cloudy
10:15 AM 38.5 °F 30.7 °F 28.2 °F 67% 30.55 in 10.0 mi North 12.7 mph 25.3 mph N/A   Mostly Cloudy
10:35 AM 40.5 °F 32.8 °F 29.7 °F 65% 30.55 in 10.0 mi North 13.8 mph 21.9 mph N/A   Mostly Cloudy
10:55 AM 40.8 °F 32.6 °F 29.1 °F 63% 30.55 in 10.0 mi North 16.1 mph 24.2 mph N/A   Mostly Cloudy
11:15 AM 41.2 °F 34.1 °F 29.1 °F 62% 30.56 in 10.0 mi North 12.7 mph 23.0 mph N/A   Overcast
11:35 AM 41.9 °F 33.7 °F 28.0 °F 58% 30.57 in 10.0 mi North 17.3 mph 26.5 mph N/A   Overcast
11:55 AM 42.8 °F 35.4 °F 28.9 °F 58% 30.56 in 10.0 mi North 15.0 mph 28.8 mph N/A   Mostly Cloudy
12:15 PM 43.3 °F 34.7 °F 31.8 °F 64% 30.56 in 10.0 mi NNW 20.7 mph 25.3 mph N/A   Mostly Cloudy
12:35 PM 44.8 °F 37.4 °F 29.8 °F 56% 30.55 in 10.0 mi North 17.3 mph 26.5 mph N/A   Scattered Clouds
12:55 PM 44.6 °F 37.4 °F 28.0 °F 52% 30.55 in 10.0 mi North 16.1 mph 26.5 mph N/A   Scattered Clouds
1:15 PM 45.7 °F 38.8 °F 30.7 °F 56% 30.54 in 10.0 mi NNW 16.1 mph 26.5 mph N/A   Scattered Clouds
1:35 PM 45.5 °F 38.3 °F 29.1 °F 53% 30.54 in 10.0 mi North 17.3 mph 27.6 mph N/A   Scattered Clouds
1:55 PM 45.3 °F 37.8 °F 28.6 °F 52% 30.54 in 10.0 mi NNW 18.4 mph 26.5 mph N/A   Scattered Clouds
2:15 PM 46.6 °F - 29.5 °F 51% 30.52 in 10.0 mi North 20.7 mph 26.5 mph N/A   Clear
2:35 PM 46.8 °F - 29.3 °F 51% 30.51 in 10.0 mi North 11.5 mph 27.6 mph N/A   Scattered Clouds
2:55 PM 47.8 °F - 29.3 °F 49% 30.51 in 10.0 mi North 20.7 mph 28.8 mph N/A   Scattered Clouds
3:15 PM 48.2 °F - 29.3 °F 48% 30.50 in 10.0 mi North 19.6 mph 32.2 mph N/A   Scattered Clouds
3:35 PM 49.3 °F - 29.1 °F 46% 30.49 in 10.0 mi North 17.3 mph 26.5 mph N/A   Scattered Clouds
3:55 PM 49.3 °F - 28.4 °F 45% 30.48 in 10.0 mi North 17.3 mph 27.6 mph N/A   Scattered Clouds
4:15 PM 49.8 °F - 28.0 °F 43% 30.48 in 10.0 mi North 18.4 mph 32.2 mph N/A   Scattered Clouds
4:35 PM 50.4 °F - 28.4 °F 43% 30.46 in 10.0 mi NNW 17.3 mph 24.2 mph N/A   Scattered Clouds
4:55 PM 50.9 °F - 27.9 °F 41% 30.45 in 10.0 mi North 13.8 mph 24.2 mph N/A   Scattered Clouds
5:15 PM 50.2 °F - 26.4 °F 40% 30.45 in 10.0 mi North 13.8 mph 23.0 mph N/A   Clear
5:35 PM 51.3 °F - 23.7 °F 34% 30.45 in 10.0 mi North 13.8 mph 25.3 mph N/A   Scattered Clouds
5:55 PM 51.3 °F - 25.2 °F 36% 30.45 in 10.0 mi North 15.0 mph 25.3 mph N/A   Clear
6:15 PM 50.9 °F - 23.7 °F 35% 30.44 in 10.0 mi North 15.0 mph 24.2 mph N/A   Clear
6:35 PM 51.3 °F - 23.7 °F 34% 30.44 in 10.0 mi North 12.7 mph 23.0 mph N/A   Clear
6:55 PM 50.9 °F - 23.0 °F 34% 30.43 in 10.0 mi North 11.5 mph 20.7 mph N/A   Clear
7:15 PM 50.5 °F - 22.3 °F 33% 30.43 in 10.0 mi North 12.7 mph 21.9 mph N/A   Clear
7:35 PM 49.8 °F - 23.4 °F 36% 30.43 in 10.0 mi North 9.2 mph - N/A   Clear
7:55 PM 48.7 °F - 25.3 °F 40% 30.43 in 10.0 mi North 6.9 mph - N/A   Clear
8:15 PM 47.3 °F - 26.6 °F 45% 30.43 in 10.0 mi North 5.8 mph - N/A   Clear
8:35 PM 46.0 °F 43.9 °F 27.5 °F 48% 30.42 in 10.0 mi North 4.6 mph - N/A   Clear
8:55 PM 44.6 °F 41.4 °F 28.4 °F 53% 30.43 in 10.0 mi North 5.8 mph - N/A   Clear
9:15 PM 43.3 °F 40.7 °F 28.9 °F 57% 30.43 in 10.0 mi North 4.6 mph - N/A   Clear
9:35 PM 42.1 °F - 28.6 °F 59% 30.43 in 10.0 mi Calm Calm - N/A   Clear
9:55 PM 41.2 °F 38.2 °F 28.0 °F 60% 30.43 in 10.0 mi North 4.6 mph - N/A   Clear
10:15 PM 40.8 °F 37.8 °F 27.3 °F 59% 30.43 in 10.0 mi North 4.6 mph - N/A   Clear
10:35 PM 40.1 °F 38.0 °F 27.0 °F 59% 30.43 in 10.0 mi North 3.5 mph - N/A   Clear
10:55 PM 38.7 °F 36.3 °F 27.3 °F 64% 30.43 in 10.0 mi North 3.5 mph - N/A   Clear
11:15 PM 37.2 °F - 27.5 °F 68% 30.42 in 10.0 mi Calm Calm - N/A   Clear
11:35 PM 37.2 °F - 27.3 °F 67% 30.41 in 10.0 mi Calm Calm - N/A   Clear
11:55 PM 37.4 °F 34.9 °F 27.1 °F 66% 30.41 in 10.0 mi North 3.5 mph - N/A   Clear